createdAt,value
2019-01-29T00:02:13.718Z,95709.80
2019-01-29T00:07:31.681Z,95712.08
2019-01-29T00:12:49.629Z,95715.02
2019-01-29T00:18:06.776Z,95728.47
2019-01-29T00:23:24.753Z,95728.98
2019-01-29T00:28:42.438Z,95727.17
2019-01-29T00:33:59.666Z,95743.37
2019-01-29T00:39:18.164Z,95751.81
2019-01-29T00:44:36.281Z,95763.71
2019-01-29T00:49:53.901Z,95757.39
2019-01-29T00:55:11.452Z,95744.14
2019-01-29T01:00:29.538Z,95776.78
2019-01-29T01:05:47.310Z,95768.35
2019-01-29T01:11:04.913Z,95781.30
2019-01-29T01:16:22.879Z,95786.98
2019-01-29T01:21:40.641Z,95800.17
2019-01-29T01:26:58.188Z,95799.77
2019-01-29T01:32:15.359Z,95795.28
2019-01-29T01:37:33.463Z,95813.86
2019-01-29T01:42:51.009Z,95825.23
2019-01-29T01:48:08.330Z,95826.85
2019-01-29T01:53:26.423Z,95813.44
2019-01-29T01:58:44.903Z,95813.14
2019-01-29T02:04:02.949Z,95808.42
2019-01-29T02:09:20.152Z,95818.63
2019-01-29T02:14:37.525Z,95821.47
2019-01-29T02:19:55.353Z,95820.69
2019-01-29T02:25:12.783Z,95825.81
2019-01-29T02:30:30.357Z,95833.05
2019-01-29T02:35:47.588Z,95832.13
2019-01-29T02:41:04.863Z,95845.91
2019-01-29T02:46:22.912Z,95844.39
2019-01-29T02:51:40.530Z,95848.87
2019-01-29T02:56:57.750Z,95856.25
2019-01-29T03:02:14.979Z,95870.45
2019-01-29T03:07:32.798Z,95871.25
2019-01-29T03:12:50.543Z,95871.90
2019-01-29T03:18:08.180Z,95911.70
2019-01-29T03:23:27.507Z,95890.69
2019-01-29T03:28:45.105Z,95906.05
2019-01-29T03:34:03.232Z,95910.58
2019-01-29T03:39:21.333Z,95913.95
2019-01-29T03:44:39.250Z,95922.33
2019-01-29T03:49:56.555Z,95924.01
2019-01-29T03:55:14.849Z,95954.47
2019-01-29T04:00:32.362Z,95953.31
2019-01-29T04:05:50.827Z,95981.89
2019-01-29T04:11:08.223Z,95969.33
2019-01-29T04:16:25.910Z,96009.30
2019-01-29T04:21:44.456Z,95986.20
2019-01-29T04:27:02.156Z,96003.69
2019-01-29T04:32:19.665Z,96003.47
2019-01-29T04:37:37.355Z,96018.62
2019-01-29T04:42:54.964Z,96030.73
2019-01-29T04:48:13.077Z,96029.03
2019-01-29T04:53:30.737Z,96036.93
2019-01-29T04:58:47.740Z,96051.57
2019-01-29T05:04:05.738Z,96047.48
2019-01-29T05:09:26.145Z,96050.36
2019-01-29T05:14:44.247Z,96059.52
2019-01-29T05:20:10.191Z,96063.54
2019-01-29T05:25:27.758Z,96074.37
2019-01-29T05:30:45.608Z,96083.47
2019-01-29T05:36:05.797Z,96094.03
2019-01-29T05:41:23.685Z,96095.87
2019-01-29T05:46:42.237Z,96099.19
2019-01-29T05:52:00.901Z,96113.87
2019-01-29T05:57:18.607Z,96118.30
2019-01-29T06:02:37.195Z,96130.68
2019-01-29T06:08:02.441Z,96130.27
2019-01-29T06:13:19.593Z,96128.43
2019-01-29T06:18:36.805Z,96129.80
2019-01-29T06:23:54.349Z,96138.91
2019-01-29T06:29:11.678Z,96146.80
2019-01-29T06:34:29.739Z,96154.27
2019-01-29T06:39:47.569Z,96160.54
2019-01-29T06:45:06.100Z,96176.97
2019-01-29T06:50:24.253Z,96178.22
2019-01-29T06:55:41.431Z,96204.38
2019-01-29T07:00:58.988Z,96208.86
2019-01-29T07:06:16.985Z,96211.52
2019-01-29T07:11:34.252Z,96222.13
2019-01-29T07:17:15.381Z,96227.05
2019-01-29T07:22:32.989Z,96238.27
2019-01-29T07:27:50.413Z,96259.50
2019-01-29T07:33:08.613Z,96246.98
2019-01-29T07:38:25.794Z,96253.79
2019-01-29T07:43:43.139Z,96264.22
2019-01-29T07:49:02.435Z,96265.67
2019-01-29T07:54:20.373Z,96269.88
2019-01-29T07:59:37.725Z,96283.35
2019-01-29T08:04:55.435Z,96279.88
2019-01-29T08:10:14.000Z,96284.66
2019-01-29T08:15:31.417Z,96285.95
2019-01-29T08:20:49.383Z,96292.42
2019-01-29T08:26:07.385Z,96296.30
2019-01-29T08:31:25.611Z,96302.29
2019-01-29T08:36:43.137Z,96309.78
2019-01-29T08:42:00.873Z,96313.34
2019-01-29T08:47:18.265Z,96314.52
2019-01-29T08:52:36.257Z,96335.68
2019-01-29T08:57:55.460Z,96326.13
2019-01-29T09:03:11.900Z,96333.25
2019-01-29T09:08:29.555Z,96338.48
2019-01-29T09:13:47.106Z,96344.67
2019-01-29T09:19:04.762Z,96368.39
2019-01-29T09:24:22.786Z,96348.71
2019-01-29T09:29:40.859Z,96360.77
2019-01-29T09:34:58.129Z,96364.70
2019-01-29T09:40:16.489Z,96375.70
2019-01-29T09:45:34.545Z,96369.34
2019-01-29T09:50:52.252Z,96368.28
2019-01-29T09:56:10.195Z,96370.01
2019-01-29T10:01:27.472Z,96383.09
2019-01-29T10:06:44.779Z,96371.45
2019-01-29T10:12:03.176Z,96365.66
2019-01-29T10:17:20.337Z,96361.48
2019-01-29T10:22:38.075Z,96362.22
2019-01-29T10:27:56.083Z,96357.34
2019-01-29T10:33:13.946Z,96352.45
2019-01-29T10:38:31.523Z,96352.99
2019-01-29T10:43:48.989Z,96346.72
2019-01-29T10:49:07.550Z,96337.05
2019-01-29T10:54:25.598Z,96343.73
2019-01-29T10:59:43.481Z,96329.95
2019-01-29T11:05:01.410Z,96333.19
2019-01-29T11:10:19.063Z,96321.89
2019-01-29T11:15:37.531Z,96326.32
2019-01-29T11:20:55.247Z,96315.92
2019-01-29T11:26:13.392Z,96316.80
2019-01-29T11:31:31.461Z,96304.28
2019-01-29T11:36:49.122Z,96305.33
2019-01-29T11:42:09.089Z,96304.69
2019-01-29T11:47:26.629Z,96299.80
2019-01-29T11:52:44.303Z,96298.59
2019-01-29T11:58:01.608Z,96290.84
2019-01-29T12:03:19.045Z,96293.34
2019-01-29T12:08:37.797Z,96290.72
2019-01-29T12:13:55.743Z,96290.75
2019-01-29T12:19:13.442Z,96295.16
2019-01-29T12:24:32.114Z,96286.19
2019-01-29T12:29:50.724Z,96280.38
2019-01-29T12:35:09.037Z,96290.09
2019-01-29T12:40:26.879Z,96281.75
2019-01-29T12:45:44.430Z,96282.13
2019-01-29T12:51:02.694Z,96272.69
2019-01-29T12:56:21.565Z,96278.37
2019-01-29T13:01:39.526Z,96273.76
2019-01-29T13:06:57.492Z,96260.52
2019-01-29T13:12:15.145Z,96263.28
2019-01-29T13:17:33.690Z,96261.61
2019-01-29T13:22:51.264Z,96255.80
2019-01-29T13:28:09.289Z,96256.45
2019-01-29T13:33:27.989Z,96251.44
2019-01-29T13:38:45.218Z,96251.73
2019-01-29T13:44:02.484Z,96245.95
2019-01-29T13:49:19.939Z,96249.97
2019-01-29T13:54:38.563Z,96240.92
2019-01-29T14:00:23.506Z,96247.22
2019-01-29T14:05:41.365Z,96248.36
2019-01-29T14:10:58.423Z,96248.33
2019-01-29T14:16:16.224Z,96261.11
2019-01-29T14:21:34.307Z,96264.10
2019-01-29T14:26:52.172Z,96254.79
2019-01-29T14:32:11.621Z,96248.78
2019-01-29T14:37:29.316Z,96249.48
2019-01-29T14:42:48.600Z,96248.73
2019-01-29T14:48:06.323Z,96242.06
2019-01-29T14:53:23.914Z,96242.86
2019-01-29T14:58:41.799Z,96240.75
2019-01-29T15:03:59.455Z,96239.47
2019-01-29T15:09:17.796Z,96233.82
2019-01-29T15:14:37.059Z,96236.27
2019-01-29T15:19:54.546Z,96235.86
2019-01-29T15:25:12.469Z,96229.51
2019-01-29T15:30:30.187Z,96239.34
2019-01-29T15:35:47.562Z,96234.73
2019-01-29T15:41:05.404Z,96230.08
2019-01-29T15:46:23.723Z,96230.35
2019-01-29T15:51:41.934Z,96230.81
2019-01-29T15:56:59.800Z,96219.13
2019-01-29T16:02:18.069Z,96223.98
2019-01-29T16:07:36.439Z,96220.23
2019-01-29T16:12:53.986Z,96218.11
2019-01-29T16:18:11.992Z,96219.03
2019-01-29T16:23:29.289Z,96221.82
2019-01-29T16:28:47.934Z,96219.67
2019-01-29T16:34:06.013Z,96212.52
2019-01-29T16:39:23.530Z,96211.03
2019-01-29T16:44:41.364Z,96215.64
2019-01-29T16:49:59.695Z,96213.37
2019-01-29T16:55:18.997Z,96211.09
2019-01-29T17:00:37.528Z,96211.88
2019-01-29T17:05:55.787Z,96217.23
2019-01-29T17:11:13.465Z,96210.72
2019-01-29T17:16:31.437Z,96205.59
2019-01-29T17:21:49.698Z,96206.64
2019-01-29T17:27:07.649Z,96204.02
2019-01-29T17:32:30.537Z,96199.53
2019-01-29T17:37:44.742Z,96196.43
2019-01-29T17:43:03.349Z,96202.78
2019-01-29T17:48:21.395Z,96197.46
2019-01-29T17:53:38.703Z,96198.30
2019-01-29T17:58:56.106Z,96194.70
2019-01-29T18:04:13.784Z,96189.69
2019-01-29T18:09:32.088Z,96190.56
2019-01-29T18:14:51.443Z,96188.77
2019-01-29T18:20:09.532Z,96187.23
2019-01-29T18:25:27.446Z,96180.64
2019-01-29T18:30:45.026Z,96174.09
2019-01-29T18:36:03.860Z,96168.77
2019-01-29T18:41:21.864Z,96168.34
2019-01-29T18:46:39.275Z,96165.27
2019-01-29T18:51:57.560Z,96160.59
2019-01-29T18:57:15.227Z,96153.95
2019-01-29T19:02:33.311Z,96156.77
2019-01-29T19:07:51.588Z,96150.77
2019-01-29T19:13:09.813Z,96145.63
2019-01-29T19:18:27.728Z,96137.63
2019-01-29T19:23:45.769Z,96138.41
2019-01-29T19:29:03.437Z,96133.28
2019-01-29T19:34:20.678Z,96122.48
2019-01-29T19:39:39.961Z,96127.98
2019-01-29T19:44:57.882Z,96125.33
2019-01-29T19:50:17.122Z,96113.87
2019-01-29T19:55:34.907Z,96114.32
2019-01-29T20:00:52.443Z,96105.41
2019-01-29T20:06:11.115Z,96094.36
2019-01-29T20:11:29.809Z,96096.28
2019-01-29T20:16:48.511Z,96083.87
2019-01-29T20:22:07.256Z,96090.00
2019-01-29T20:27:24.667Z,96085.52
2019-01-29T20:32:42.295Z,96080.42
2019-01-29T20:38:00.394Z,96078.69
2019-01-29T20:43:18.797Z,96070.89
2019-01-29T20:48:36.775Z,96071.80
2019-01-29T20:53:56.107Z,96066.96
2019-01-29T20:59:14.033Z,96061.33
2019-01-29T21:04:31.773Z,96061.41
2019-01-29T21:09:50.013Z,96049.01
2019-01-29T21:15:08.843Z,96040.47
2019-01-29T21:20:30.073Z,96023.80
2019-01-29T21:25:48.216Z,96012.84
2019-01-29T21:31:08.073Z,96010.30
2019-01-29T21:36:24.206Z,96006.20
2019-01-29T21:41:42.006Z,96003.20
2019-01-29T21:47:00.242Z,96003.56
2019-01-29T21:52:17.943Z,95982.97
2019-01-29T21:57:36.914Z,95973.69
2019-01-29T22:02:56.252Z,95975.34
2019-01-29T22:08:14.785Z,95971.69
2019-01-29T22:13:32.557Z,95954.59
2019-01-29T22:18:49.825Z,95951.48
2019-01-29T22:24:07.245Z,95938.55
2019-01-29T22:29:25.184Z,95932.62
2019-01-29T22:34:42.609Z,95927.79
2019-01-29T22:39:59.833Z,95919.34
2019-01-29T22:45:17.508Z,95918.52
2019-01-29T22:50:37.874Z,95905.42
2019-01-29T22:55:55.632Z,95890.84
2019-01-29T23:01:22.236Z,95882.57
2019-01-29T23:06:51.306Z,95874.09
2019-01-29T23:12:08.965Z,95864.27
2019-01-29T23:17:26.897Z,95849.36
2019-01-29T23:22:45.117Z,95842.06
2019-01-29T23:28:02.717Z,95831.13
2019-01-29T23:33:20.390Z,95818.70
2019-01-29T23:38:38.414Z,95818.05
2019-01-29T23:43:55.907Z,95730.66
2019-01-29T23:49:13.691Z,95808.84
2019-01-29T23:54:30.948Z,95789.48
2019-01-29T23:59:53.619Z,95784.95
